Finnmarken — LDBE — position and weather

sailwx.info

Track history (hours):
 
Tides and Currents Weather Stations Pressure Air Temp Water Temp Dewpoint Dewpoint Depression Visibility Wind Speed Wind Dir Waves Ship Positions

Finnmarken

Last reported at 2017-Dec-11 08:55 UTC. Time now 2017-Dec-11 09:28 UTC.
Position N 69°44' E 030°04'.

Length 139 m; draft 5.2 m.

Type: Passenger vessel. MMSI: 259210000.

Date/timePositionNaut miles runAvg speedWind from/ knotsBaromVisibWave heightAir tempDewpointWater temp
2017-Dec-11 08:55N 69°44' E 030°04'0 0.0
2017-Dec-11 08:25N 69°44' E 030°04'2 5.3
2017-Dec-11 08:00N 69°46' E 030°05'713.2
2017-Dec-11 07:30N 69°52' E 030°01'714.2
2017-Dec-11 07:00N 69°59' E 029°51'610.7
2017-Dec-11 06:25N 70°04' E 029°44'0 0.2
2017-Dec-11 06:00N 70°04' E 029°44'3 5.4
2017-Dec-11 05:29N 70°02' E 029°50'613.0
2017-Dec-11 05:00N 70°03' E 030°08'612.6
2017-Dec-11 04:30N 70°06' E 030°25'713.2
2017-Dec-11 04:00N 70°10' E 030°41'713.5
2017-Dec-11 03:30N 70°14' E 030°57'612.5
2017-Dec-11 03:00N 70°19' E 031°08'510.2
2017-Dec-11 02:30N 70°24' E 031°06'611.5
2017-Dec-11 02:00N 70°28' E 030°55'713.8
2017-Dec-11 01:30N 70°33' E 030°40'713.4
2017-Dec-11 01:00N 70°38' E 030°26'713.9
2017-Dec-11 00:30N 70°43' E 030°11'612.3
2017-Dec-11 00:00N 70°41' E 029°53'4 8.7
2017-Dec-10 23:30N 70°38' E 029°44'510.7
2017-Dec-10 23:00N 70°43' E 029°49'713.9
2017-Dec-10 22:30N 70°48' E 029°34'714.3
2017-Dec-10 21:59N 70°52' E 029°16'3 6.3
2017-Dec-10 21:30N 70°52' E 029°07'3 5.8
2017-Dec-10 21:00N 70°54' E 029°04'612.0
2017-Dec-10 20:30N 70°58' E 028°50'713.1
2017-Dec-10 20:00N 71°02' E 028°34'713.3
2017-Dec-10 19:30N 71°06' E 028°19'612.8
2017-Dec-10 19:00N 71°06' E 027°59'4 4.4
2017-Dec-10 18:09N 71°04' E 027°50'214.1
2017-Dec-10 18:00N 71°06' E 027°48'611.0
2017-Dec-10 17:30N 71°07' E 027°31'714.9
2017-Dec-10 17:00N 71°03' E 027°13'611.9
2017-Dec-10 16:29N 70°57' E 027°20'0 0.6
2017-Dec-10 16:00N 70°57' E 027°19'713.0
2017-Dec-10 15:30N 70°59' E 027°00'714.9
2017-Dec-10 15:00N 70°59' E 026°37'714.9
2017-Dec-10 14:31N 70°58' E 026°15'611.4
2017-Dec-10 14:00N 70°59' E 025°58'0 0.4
2017-Dec-10 13:29N 70°59' E 025°58'0 0.0
2017-Dec-10 12:59N 70°59' E 025°58'0 0.0
2017-Dec-10 12:30N 70°59' E 025°58'0 0.0
2017-Dec-10 12:00N 70°59' E 025°58'0 0.0
2017-Dec-10 11:29N 70°59' E 025°58'0 0.0
2017-Dec-10 11:00N 70°59' E 025°58'0 0.0
2017-Dec-10 10:30N 70°59' E 025°58'3 5.5
2017-Dec-10 10:00N 70°57' E 025°53'714.0
2017-Dec-10 09:30N 70°56' E 025°31'713.6
2017-Dec-10 09:00N 70°59' E 025°12'714.5
2017-Dec-10 08:30N 70°60' E 024°51'3 5.9
2017-Dec-10 08:00N 70°60' E 024°41'1 2.4
2017-Dec-10 07:30N 71°01' E 024°44'611.5
2017-Dec-10 07:00N 70°60' E 024°26'714.0
2017-Dec-10 06:30N 70°55' E 024°11'714.7
2017-Dec-10 06:00N 70°50' E 023°54'815.1
2017-Dec-10 05:30N 70°45' E 023°38'5 9.6
2017-Dec-10 05:00N 70°40' E 023°41'0 0.0
2017-Dec-10 04:30N 70°40' E 023°41'1 2.0
2017-Dec-10 04:00N 70°40' E 023°38'714.9
2017-Dec-10 03:30N 70°37' E 023°17'815.5
2017-Dec-10 03:00N 70°31' E 022°60'815.5
2017-Dec-10 02:30N 70°27' E 022°41'815.0
2017-Dec-10 02:00N 70°23' E 022°22'714.0
2017-Dec-10 01:30N 70°16' E 022°20'1 2.3
2017-Dec-10 01:00N 70°15' E 022°20'612.1
2017-Dec-10 00:30N 70°19' E 022°09'713.7
2017-Dec-10 00:00N 70°23' E 021°51'510.9
2017-Dec-09 23:30N 70°22' E 021°35'714.0
2017-Dec-09 23:00N 70°17' E 021°21'713.5
2017-Dec-09 22:30N 70°12' E 021°08'714.6
2017-Dec-09 22:00N 70°05' E 021°03'3 5.8
2017-Dec-09 21:30N 70°02' E 020°59'3 5.2
2017-Dec-09 21:00N 70°03' E 020°52'714.6
2017-Dec-09 20:29N 70°01' E 020°32'714.4
2017-Dec-09 20:00N 69°58' E 020°13'815.0
2017-Dec-09 19:30N 69°54' E 019°55'714.7
2017-Dec-09 19:00N 69°50' E 019°37'714.4
2017-Dec-09 18:30N 69°47' E 019°18'713.2
2017-Dec-09 18:00N 69°43' E 019°03'4 9.0
2017-Dec-09 17:30N 69°39' E 018°58'0 0.0
2017-Dec-09 16:58N 69°39' E 018°58'0 0.0
2017-Dec-09 16:28N 69°39' E 018°58'0 0.0
2017-Dec-09 15:58N 69°39' E 018°58'0 0.0
2017-Dec-09 15:28N 69°39' E 018°58'0 0.0
2017-Dec-09 14:58N 69°39' E 018°58'0 0.0
2017-Dec-09 14:28N 69°39' E 018°58'0 0.0
2017-Dec-09 13:58N 69°39' E 018°58'0 0.1
2017-Dec-09 13:30N 69°39' E 018°58'510.8
2017-Dec-09 13:00N 69°35' E 018°49'815.6
2017-Dec-09 12:30N 69°31' E 018°28'714.6
2017-Dec-09 12:00N 69°28' E 018°09'713.7
2017-Dec-09 11:30N 69°22' E 018°06'713.3
2017-Dec-09 11:00N 69°16' E 017°58'2 3.9
2017-Dec-09 10:30N 69°14' E 017°58'0 0.1
2017-Dec-09 10:01N 69°14' E 017°58'4 8.7
2017-Dec-09 09:30N 69°10' E 017°55'713.8
2017-Dec-09 09:01N 69°07' E 017°37'713.3
2017-Dec-09 08:29N 69°03' E 017°21'713.7
2017-Dec-09 08:00N 68°58' E 017°09'713.8
2017-Dec-09 07:30N 68°54' E 016°54'714.1
2017-Dec-09 07:00N 68°49' E 016°38'2 4.2
2017-Dec-09 06:27N 68°48' E 016°33'0 0.0
2017-Dec-09 05:57N 68°48' E 016°33'1 1.3
2017-Dec-09 05:30N 68°48' E 016°34'510.4
2017-Dec-09 05:00N 68°53' E 016°27'713.7
2017-Dec-09 04:30N 68°57' E 016°12'713.6
2017-Dec-09 04:00N 68°59' E 015°54'611.0
2017-Dec-09 03:30N 68°58' E 015°39'4 7.3
2017-Dec-09 02:59N 68°55' E 015°35'714.6
2017-Dec-09 02:30N 68°48' E 015°26'612.2
2017-Dec-09 01:59N 68°42' E 015°25'0 0.2
2017-Dec-09 01:29N 68°42' E 015°25'510.4
2017-Dec-09 01:00N 68°37' E 015°19'714.3
2017-Dec-09 00:30N 68°34' E 015°01'2 4.8
2017-Dec-09 00:00N 68°34' E 014°55'0 0.0
2017-Dec-08 23:30N 68°34' E 014°55'1 1.1
2017-Dec-08 23:00N 68°35' E 014°56'611.7
2017-Dec-08 22:29N 68°31' E 015°09'510.1
2017-Dec-08 22:00N 68°26' E 015°09'612.0
2017-Dec-08 21:30N 68°21' E 015°02'613.1
2017-Dec-08 21:00N 68°15' E 014°56'510.5
2017-Dec-08 20:30N 68°14' E 014°42'5 9.5
2017-Dec-08 20:00N 68°12' E 014°30'714.0
2017-Dec-08 19:30N 68°08' E 014°14'713.5
2017-Dec-08 19:00N 68°07' E 013°57'2 4.9
2017-Dec-08 18:30N 68°07' E 013°50'2 4.2
2017-Dec-08 18:01N 68°05' E 013°51'713.6
2017-Dec-08 17:29N 67°59' E 013°58'713.5
2017-Dec-08 17:00N 67°52' E 014°04'714.1
2017-Dec-08 16:30N 67°46' E 014°10'713.9
2017-Dec-08 16:00N 67°39' E 014°15'713.8
2017-Dec-08 15:30N 67°33' E 014°20'714.4
2017-Dec-08 15:01N 67°26' E 014°26'713.7
2017-Dec-08 14:31N 67°19' E 014°23'2 3.5
2017-Dec-08 14:00N 67°17' E 014°24'0 0.0
2017-Dec-08 13:29N 67°17' E 014°24'0 0.0
2017-Dec-08 12:59N 67°17' E 014°24'0 0.0
2017-Dec-08 12:29N 67°17' E 014°24'0 0.0
2017-Dec-08 11:59N 67°17' E 014°24'0 0.0
2017-Dec-08 11:30N 67°17' E 014°24'5 9.1
2017-Dec-08 11:00N 67°15' E 014°14'815.4
2017-Dec-08 10:31N 67°09' E 014°02'816.0
2017-Dec-08 10:01N 67°02' E 013°49'815.3
2017-Dec-08 09:30N 66°58' E 013°33'5 8.8
2017-Dec-08 09:00N 66°54' E 013°37'2 4.9
2017-Dec-08 08:30N 66°52' E 013°42'510.8
2017-Dec-08 08:00N 66°49' E 013°31'816.0
2017-Dec-08 07:30N 66°45' E 013°13'816.8
2017-Dec-08 07:01N 66°38' E 013°05'714.0
2017-Dec-08 06:30N 66°31' E 012°58'816.9
2017-Dec-08 06:00N 66°23' E 012°58'917.1
2017-Dec-08 05:30N 66°14' E 012°54'3 7.0
2017-Dec-08 05:00N 66°12' E 013°00'511.1
2017-Dec-08 04:30N 66°08' E 012°51'815.8
2017-Dec-08 04:00N 66°02' E 012°38'1 1.0
2017-Dec-08 03:30N 66°01' E 012°38'1 1.2
2017-Dec-08 03:00N 66°02' E 012°38'3 5.6
2017-Dec-08 02:30N 66°00' E 012°32'612.8
2017-Dec-08 02:00N 65°55' E 012°23'713.6
2017-Dec-08 01:30N 65°48' E 012°21'713.4
2017-Dec-08 01:00N 65°42' E 012°17'814.8
2017-Dec-08 00:30N 65°34' E 012°13'612.1
2017-Dec-08 00:00N 65°29' E 012°13'0 0.4
2017-Dec-07 23:30N 65°28' E 012°12'612.7
2017-Dec-07 23:00N 65°23' E 012°06'715.1
2017-Dec-07 22:31N 65°16' E 011°57'815.1
2017-Dec-07 22:00N 65°09' E 011°50'714.9
2017-Dec-07 21:31N 65°03' E 011°42'714.3
2017-Dec-07 21:00N 64°60' E 011°27'714.5
2017-Dec-07 20:30N 64°53' E 011°19'2 4.8
2017-Dec-07 20:00N 64°52' E 011°14'0 0.0
2017-Dec-07 19:30N 64°52' E 011°14'5 9.3
2017-Dec-07 19:00N 64°48' E 011°07'714.4
2017-Dec-07 18:30N 64°43' E 010°54'714.3
2017-Dec-07 18:00N 64°38' E 010°42'815.1
2017-Dec-07 17:31N 64°33' E 010°31'713.7
2017-Dec-07 17:00N 64°26' E 010°27'713.2
2017-Dec-07 16:30N 64°19' E 010°25'713.6
2017-Dec-07 16:00N 64°14' E 010°15'715.0
2017-Dec-07 15:30N 64°08' E 010°05'815.2
2017-Dec-07 15:00N 64°04' E 009°51'714.3
2017-Dec-07 14:30N 63°57' E 009°47'714.2
2017-Dec-07 14:00N 63°51' E 009°39'714.9
2017-Dec-07 13:30N 63°44' E 009°32'612.4
2017-Dec-07 13:00N 63°38' E 009°32'713.6
2017-Dec-07 12:31N 63°38' E 009°47'816.0
2017-Dec-07 12:01N 63°31' E 009°55'715.0
2017-Dec-07 11:31N 63°28' E 010°11'612.7
2017-Dec-07 11:00N 63°27' E 010°24'0 0.1
2017-Dec-07 10:30N 63°27' E 010°24'0 0.0
2017-Dec-07 10:00N 63°27' E 010°24'0 0.0
2017-Dec-07 09:30N 63°27' E 010°24'0 0.0
2017-Dec-07 09:00N 63°27' E 010°24'0 0.0
2017-Dec-07 08:30N 63°27' E 010°24'0 0.0
2017-Dec-07 08:00N 63°27' E 010°24'0 0.0
2017-Dec-07 07:30N 63°27' E 010°24'0 0.0
2017-Dec-07 07:00N 63°27' E 010°24'0 0.0
2017-Dec-07 06:30N 63°27' E 010°24'0 0.0
2017-Dec-07 06:00N 63°27' E 010°24'0 0.0
2017-Dec-07 05:30N 63°27' E 010°24'0 0.0
2017-Dec-07 05:00N 63°27' E 010°24'2 4.8
2017-Dec-07 04:30N 63°27' E 010°19'713.9
2017-Dec-07 04:00N 63°28' E 010°04'611.8
2017-Dec-07 03:30N 63°32' E 009°53'612.6
2017-Dec-07 03:00N 63°37' E 009°47'5 9.3
2017-Dec-07 02:30N 63°38' E 009°37'713.8
2017-Dec-07 02:00N 63°34' E 009°23'714.8
2017-Dec-07 01:30N 63°31' E 009°08'714.6
2017-Dec-07 01:00N 63°28' E 008°54'714.2
2017-Dec-07 00:30N 63°25' E 008°39'714.3
2017-Dec-07 00:00N 63°22' E 008°24'714.9
2017-Dec-06 23:30N 63°17' E 008°12'714.6
2017-Dec-06 23:00N 63°14' E 007°58'714.4
2017-Dec-06 22:30N 63°09' E 007°45'3 5.1
2017-Dec-06 22:00N 63°07' E 007°44'0 0.0
2017-Dec-06 21:30N 63°07' E 007°44'0 0.3
2017-Dec-06 21:01N 63°07' E 007°44'  
2017-Dec-04 10:30N 63°36' E 009°49'714.1
2017-Dec-04 10:00N 63°30' E 009°56'714.5
2017-Dec-04 09:30N 63°28' E 010°12'611.4
2017-Dec-04 09:00N 63°27' E 010°24'0 0.0
2017-Dec-04 08:30N 63°27' E 010°24'0 0.0
2017-Dec-04 08:00N 63°27' E 010°24'0 0.0
2017-Dec-04 07:30N 63°27' E 010°24'0 0.0
2017-Dec-04 07:00N 63°27' E 010°24'0 0.0
2017-Dec-04 06:30N 63°27' E 010°24'0 0.0
2017-Dec-04 06:00N 63°27' E 010°24'0 0.0
2017-Dec-04 05:30N 63°27' E 010°24'2 3.9
2017-Dec-04 05:00N 63°27' E 010°20'715.0
2017-Dec-04 04:30N 63°28' E 010°04'714.1
2017-Dec-04 04:00N 63°33' E 009°52'714.1
2017-Dec-04 03:30N 63°39' E 009°44'713.6
2017-Dec-04 03:00N 63°38' E 009°29'714.5
2017-Dec-04 02:30N 63°45' E 009°32'714.7
2017-Dec-04 02:00N 63°52' E 009°40'713.6
2017-Dec-04 01:30N 63°58' E 009°47'713.5
2017-Dec-04 01:00N 64°04' E 009°53'714.9
2017-Dec-04 00:30N 64°09' E 010°06'714.6
2017-Dec-04 00:00N 64°14' E 010°16'713.3
2017-Dec-03 23:30N 64°20' E 010°26'613.0
2017-Dec-03 23:00N 64°26' E 010°27'713.6
2017-Dec-03 22:30N 64°32' E 010°31'713.9
2017-Dec-03 22:00N 64°38' E 010°42'713.4
2017-Dec-03 21:30N 64°43' E 010°52'714.1
2017-Dec-03 21:00N 64°47' E 011°05'612.1
2017-Dec-03 20:31N 64°52' E 011°14'0 0.1
2017-Dec-03 20:00N 64°52' E 011°14'0 0.1
2017-Dec-03 19:31N 64°52' E 011°14'510.4
2017-Dec-03 19:00N 64°56' E 011°22'713.1
2017-Dec-03 18:30N 65°01' E 011°32'713.9
2017-Dec-03 18:00N 65°05' E 011°46'714.2
2017-Dec-03 17:30N 65°11' E 011°52'714.5
2017-Dec-03 17:00N 65°18' E 011°59'815.0
2017-Dec-03 16:30N 65°24' E 012°08'5 9.2
2017-Dec-03 16:00N 65°29' E 012°13'0 0.0
2017-Dec-03 15:29N 65°29' E 012°13'0 0.0
2017-Dec-03 15:00N 65°29' E 012°13'2 4.2
2017-Dec-03 14:30N 65°31' E 012°12'815.0
2017-Dec-03 14:00N 65°38' E 012°15'815.0
2017-Dec-03 13:30N 65°45' E 012°18'714.8
2017-Dec-03 13:00N 65°53' E 012°22'713.7
2017-Dec-03 12:30N 65°59' E 012°28'5 9.4
2017-Dec-03 12:00N 66°01' E 012°38'0 0.0
2017-Dec-03 11:30N 66°01' E 012°38'5 9.3
2017-Dec-03 11:00N 66°06' E 012°43'714.3
2017-Dec-03 10:30N 66°10' E 012°57'3 5.1
2017-Dec-03 10:00N 66°12' E 013°00'611.7
2017-Dec-03 09:30N 66°18' E 012°56'815.8
2017-Dec-03 09:00N 66°26' E 012°59'714.5
2017-Dec-03 08:30N 66°33' E 013°01'714.9
2017-Dec-03 08:00N 66°40' E 013°07'815.5
2017-Dec-03 07:30N 66°47' E 013°16'815.4
2017-Dec-03 07:00N 66°49' E 013°35'4 8.0
2017-Dec-03 06:30N 66°52' E 013°42'5 8.9
2017-Dec-03 06:00N 66°54' E 013°31'611.5
2017-Dec-03 05:30N 66°59' E 013°35'714.3
2017-Dec-03 05:00N 67°03' E 013°51'714.1
2017-Dec-03 04:30N 67°09' E 014°02'815.4
2017-Dec-03 04:00N 67°15' E 014°12'5 9.9
2017-Dec-03 03:30N 67°17' E 014°24'0 0.1
2017-Dec-03 03:00N 67°17' E 014°24'0 0.0
2017-Dec-03 02:31N 67°17' E 014°24'1 1.5
2017-Dec-03 02:00N 67°17' E 014°22'3 5.8
2017-Dec-03 01:31N 67°20' E 014°20'713.9
2017-Dec-03 01:01N 67°27' E 014°25'815.1
2017-Dec-03 00:30N 67°34' E 014°20'814.9
2017-Dec-03 00:00N 67°41' E 014°13'714.6
2017-Dec-02 23:31N 67°48' E 014°07'714.6
2017-Dec-02 23:00N 67°55' E 014°01'714.6
2017-Dec-02 22:30N 68°02' E 013°54'611.1
2017-Dec-02 22:00N 68°07' E 013°50'0 0.0
2017-Dec-02 21:31N 68°07' E 013°50'4 7.4
2017-Dec-02 21:00N 68°07' E 014°01'713.5
2017-Dec-02 20:30N 68°09' E 014°17'713.4
2017-Dec-02 20:00N 68°12' E 014°33'1 2.6
2017-Dec-02 19:26N 68°14' E 014°34'0 0.0
2017-Dec-02 18:56N 68°14' E 014°34'0 0.0
2017-Dec-02 18:26N 68°14' E 014°34'0 0.0
2017-Dec-02 17:56N 68°14' E 014°34'0 0.0
2017-Dec-02 17:26N 68°14' E 014°34'1 2.1
2017-Dec-02 17:00N 68°13' E 014°35'612.3
2017-Dec-02 16:30N 68°13' E 014°51'714.2
2017-Dec-02 16:00N 68°19' E 014°59'714.9
2017-Dec-02 15:30N 68°26' E 015°09'611.0
2017-Dec-02 15:00N 68°31' E 015°08'611.0
2017-Dec-02 14:30N 68°34' E 014°55'0 0.0
2017-Dec-02 13:56N 68°34' E 014°55'0 0.0
2017-Dec-02 13:26N 68°34' E 014°55'2 4.2
2017-Dec-02 13:00N 68°34' E 014°60'714.3
2017-Dec-02 12:31N 68°38' E 015°17'510.0
2017-Dec-02 11:59N 68°42' E 015°25'0 0.0
2017-Dec-02 11:30N 68°42' E 015°25'4 7.3
2017-Dec-02 11:00N 68°46' E 015°26'714.5
2017-Dec-02 10:30N 68°53' E 015°32'612.1
2017-Dec-02 10:00N 68°58' E 015°39'0 0.2
2017-Dec-02 09:30N 68°58' E 015°39'510.0
2017-Dec-02 09:00N 68°59' E 015°52'714.5
2017-Dec-02 08:30N 68°57' E 016°12'714.4
2017-Dec-02 08:00N 68°52' E 016°27'510.1
2017-Dec-02 07:31N 68°48' E 016°33'0 0.2
2017-Dec-02 07:00N 68°48' E 016°33'611.9
2017-Dec-02 06:30N 68°52' E 016°46'816.9
2017-Dec-02 06:00N 68°57' E 017°04'816.1
2017-Dec-02 05:30N 69°03' E 017°20'815.2
2017-Dec-02 05:01N 69°07' E 017°37'815.4
2017-Dec-02 04:30N 69°10' E 017°57'4 7.0
2017-Dec-02 04:00N 69°14' E 017°58'1 1.3
2017-Dec-02 03:30N 69°14' E 017°58'713.5
2017-Dec-02 03:00N 69°21' E 018°04'714.3
2017-Dec-02 02:31N 69°28' E 018°07'815.2
2017-Dec-02 02:00N 69°31' E 018°26'815.9
2017-Dec-02 01:30N 69°34' E 018°48'612.0
2017-Dec-02 01:00N 69°39' E 018°58'0 0.1
2017-Dec-02 00:30N 69°39' E 018°58'0 0.0
2017-Dec-02 00:00N 69°39' E 018°58'0 0.0
2017-Dec-01 23:30N 69°39' E 018°58'0 0.0
2017-Dec-01 23:00N 69°39' E 018°58'1 1.1
2017-Dec-01 22:30N 69°38' E 018°57'2 3.6
2017-Dec-01 22:00N 69°39' E 018°52'3 6.2
2017-Dec-01 21:30N 69°42' E 018°56'3 6.2
2017-Dec-01 21:00N 69°44' E 019°02'3 6.0
2017-Dec-01 20:30N 69°41' E 019°02'3 5.2
2017-Dec-01 20:00N 69°39' E 018°58'0 0.0
2017-Dec-01 19:30N 69°39' E 018°58'0 0.0
2017-Dec-01 18:59N 69°39' E 018°58'3 6.1
2017-Dec-01 18:30N 69°42' E 019°02'713.2
2017-Dec-01 18:00N 69°47' E 019°14'815.2
2017-Dec-01 17:30N 69°50' E 019°34'815.1
2017-Dec-01 17:00N 69°53' E 019°53'815.1
2017-Dec-01 16:30N 69°58' E 020°10'815.0
2017-Dec-01 16:00N 70°01' E 020°31'815.3
2017-Dec-01 15:30N 70°03' E 020°52'815.3
2017-Dec-01 15:00N 70°10' E 021°04'714.4
2017-Dec-01 14:30N 70°16' E 021°16'815.5
2017-Dec-01 14:00N 70°21' E 021°33'715.0
2017-Dec-01 13:30N 70°25' E 021°52'815.9
2017-Dec-01 13:00N 70°27' E 022°15'816.0
2017-Dec-01 12:31N 70°29' E 022°37'815.2
2017-Dec-01 12:00N 70°32' E 022°59'815.1
2017-Dec-01 11:30N 70°37' E 023°16'714.8
2017-Dec-01 11:00N 70°40' E 023°37'1 2.7
2017-Dec-01 10:30N 70°40' E 023°41'0 0.0
2017-Dec-01 10:00N 70°40' E 023°41'2 3.2
2017-Dec-01 09:31N 70°40' E 023°36'611.6
2017-Dec-01 09:00N 70°46' E 023°40'  
Track history (hours):
 
Tides and Currents Weather Stations Pressure Air Temp Water Temp Dewpoint Dewpoint Depression Visibility Wind Speed Wind Dir Waves Ship Positions

Finnmarken

Last reported at 2017-Dec-11 08:55 UTC. Time now 2017-Dec-11 09:28 UTC.
Position N 69°44' E 030°04'.

Length 139 m; draft 5.2 m.

Type: Passenger vessel. MMSI: 259210000.

Date/timePositionNaut miles runAvg speedWind from/ knotsBaromVisibWave heightAir tempDewpointWater temp
2017-Dec-11 08:55N 69°44' E 030°04'0 0.0
2017-Dec-11 08:25N 69°44' E 030°04'2 5.3
2017-Dec-11 08:00N 69°46' E 030°05'713.2
2017-Dec-11 07:30N 69°52' E 030°01'714.2
2017-Dec-11 07:00N 69°59' E 029°51'610.7
2017-Dec-11 06:25N 70°04' E 029°44'0 0.2
2017-Dec-11 06:00N 70°04' E 029°44'3 5.4
2017-Dec-11 05:29N 70°02' E 029°50'613.0
2017-Dec-11 05:00N 70°03' E 030°08'612.6
2017-Dec-11 04:30N 70°06' E 030°25'713.2
2017-Dec-11 04:00N 70°10' E 030°41'713.5
2017-Dec-11 03:30N 70°14' E 030°57'612.5
2017-Dec-11 03:00N 70°19' E 031°08'510.2
2017-Dec-11 02:30N 70°24' E 031°06'611.5
2017-Dec-11 02:00N 70°28' E 030°55'713.8
2017-Dec-11 01:30N 70°33' E 030°40'713.4
2017-Dec-11 01:00N 70°38' E 030°26'713.9
2017-Dec-11 00:30N 70°43' E 030°11'612.3
2017-Dec-11 00:00N 70°41' E 029°53'4 8.7
2017-Dec-10 23:30N 70°38' E 029°44'510.7
2017-Dec-10 23:00N 70°43' E 029°49'713.9
2017-Dec-10 22:30N 70°48' E 029°34'714.3
2017-Dec-10 21:59N 70°52' E 029°16'3 6.3
2017-Dec-10 21:30N 70°52' E 029°07'3 5.8
2017-Dec-10 21:00N 70°54' E 029°04'612.0
2017-Dec-10 20:30N 70°58' E 028°50'713.1
2017-Dec-10 20:00N 71°02' E 028°34'713.3
2017-Dec-10 19:30N 71°06' E 028°19'612.8
2017-Dec-10 19:00N 71°06' E 027°59'4 4.4
2017-Dec-10 18:09N 71°04' E 027°50'214.1
2017-Dec-10 18:00N 71°06' E 027°48'611.0
2017-Dec-10 17:30N 71°07' E 027°31'714.9
2017-Dec-10 17:00N 71°03' E 027°13'611.9
2017-Dec-10 16:29N 70°57' E 027°20'0 0.6
2017-Dec-10 16:00N 70°57' E 027°19'713.0
2017-Dec-10 15:30N 70°59' E 027°00'714.9
2017-Dec-10 15:00N 70°59' E 026°37'714.9
2017-Dec-10 14:31N 70°58' E 026°15'611.4
2017-Dec-10 14:00N 70°59' E 025°58'0 0.4
2017-Dec-10 13:29N 70°59' E 025°58'0 0.0
2017-Dec-10 12:59N 70°59' E 025°58'0 0.0
2017-Dec-10 12:30N 70°59' E 025°58'0 0.0
2017-Dec-10 12:00N 70°59' E 025°58'0 0.0
2017-Dec-10 11:29N 70°59' E 025°58'0 0.0
2017-Dec-10 11:00N 70°59' E 025°58'0 0.0
2017-Dec-10 10:30N 70°59' E 025°58'3 5.5
2017-Dec-10 10:00N 70°57' E 025°53'714.0
2017-Dec-10 09:30N 70°56' E 025°31'713.6
2017-Dec-10 09:00N 70°59' E 025°12'714.5
2017-Dec-10 08:30N 70°60' E 024°51'3 5.9
2017-Dec-10 08:00N 70°60' E 024°41'1 2.4
2017-Dec-10 07:30N 71°01' E 024°44'611.5
2017-Dec-10 07:00N 70°60' E 024°26'714.0
2017-Dec-10 06:30N 70°55' E 024°11'714.7
2017-Dec-10 06:00N 70°50' E 023°54'815.1
2017-Dec-10 05:30N 70°45' E 023°38'5 9.6
2017-Dec-10 05:00N 70°40' E 023°41'0 0.0
2017-Dec-10 04:30N 70°40' E 023°41'1 2.0
2017-Dec-10 04:00N 70°40' E 023°38'714.9
2017-Dec-10 03:30N 70°37' E 023°17'815.5
2017-Dec-10 03:00N 70°31' E 022°60'815.5
2017-Dec-10 02:30N 70°27' E 022°41'815.0
2017-Dec-10 02:00N 70°23' E 022°22'714.0
2017-Dec-10 01:30N 70°16' E 022°20'1 2.3
2017-Dec-10 01:00N 70°15' E 022°20'612.1
2017-Dec-10 00:30N 70°19' E 022°09'713.7
2017-Dec-10 00:00N 70°23' E 021°51'510.9
2017-Dec-09 23:30N 70°22' E 021°35'714.0
2017-Dec-09 23:00N 70°17' E 021°21'713.5
2017-Dec-09 22:30N 70°12' E 021°08'714.6
2017-Dec-09 22:00N 70°05' E 021°03'3 5.8
2017-Dec-09 21:30N 70°02' E 020°59'3 5.2
2017-Dec-09 21:00N 70°03' E 020°52'714.6
2017-Dec-09 20:29N 70°01' E 020°32'714.4
2017-Dec-09 20:00N 69°58' E 020°13'815.0
2017-Dec-09 19:30N 69°54' E 019°55'714.7
2017-Dec-09 19:00N 69°50' E 019°37'714.4
2017-Dec-09 18:30N 69°47' E 019°18'713.2
2017-Dec-09 18:00N 69°43' E 019°03'4 9.0
2017-Dec-09 17:30N 69°39' E 018°58'0 0.0
2017-Dec-09 16:58N 69°39' E 018°58'0 0.0
2017-Dec-09 16:28N 69°39' E 018°58'0 0.0
2017-Dec-09 15:58N 69°39' E 018°58'0 0.0
2017-Dec-09 15:28N 69°39' E 018°58'0 0.0
2017-Dec-09 14:58N 69°39' E 018°58'0 0.0
2017-Dec-09 14:28N 69°39' E 018°58'0 0.0
2017-Dec-09 13:58N 69°39' E 018°58'0 0.1
2017-Dec-09 13:30N 69°39' E 018°58'510.8
2017-Dec-09 13:00N 69°35' E 018°49'815.6
2017-Dec-09 12:30N 69°31' E 018°28'714.6
2017-Dec-09 12:00N 69°28' E 018°09'713.7
2017-Dec-09 11:30N 69°22' E 018°06'713.3
2017-Dec-09 11:00N 69°16' E 017°58'2 3.9
2017-Dec-09 10:30N 69°14' E 017°58'0 0.1
2017-Dec-09 10:01N 69°14' E 017°58'4 8.7
2017-Dec-09 09:30N 69°10' E 017°55'713.8
2017-Dec-09 09:01N 69°07' E 017°37'713.3
2017-Dec-09 08:29N 69°03' E 017°21'713.7
2017-Dec-09 08:00N 68°58' E 017°09'713.8
2017-Dec-09 07:30N 68°54' E 016°54'714.1
2017-Dec-09 07:00N 68°49' E 016°38'2 4.2
2017-Dec-09 06:27N 68°48' E 016°33'0 0.0
2017-Dec-09 05:57N 68°48' E 016°33'1 1.3
2017-Dec-09 05:30N 68°48' E 016°34'510.4
2017-Dec-09 05:00N 68°53' E 016°27'713.7
2017-Dec-09 04:30N 68°57' E 016°12'713.6
2017-Dec-09 04:00N 68°59' E 015°54'611.0
2017-Dec-09 03:30N 68°58' E 015°39'4 7.3
2017-Dec-09 02:59N 68°55' E 015°35'714.6
2017-Dec-09 02:30N 68°48' E 015°26'612.2
2017-Dec-09 01:59N 68°42' E 015°25'0 0.2
2017-Dec-09 01:29N 68°42' E 015°25'510.4
2017-Dec-09 01:00N 68°37' E 015°19'714.3
2017-Dec-09 00:30N 68°34' E 015°01'2 4.8
2017-Dec-09 00:00N 68°34' E 014°55'0 0.0
2017-Dec-08 23:30N 68°34' E 014°55'1 1.1
2017-Dec-08 23:00N 68°35' E 014°56'611.7
2017-Dec-08 22:29N 68°31' E 015°09'510.1
2017-Dec-08 22:00N 68°26' E 015°09'612.0
2017-Dec-08 21:30N 68°21' E 015°02'613.1
2017-Dec-08 21:00N 68°15' E 014°56'510.5
2017-Dec-08 20:30N 68°14' E 014°42'5 9.5
2017-Dec-08 20:00N 68°12' E 014°30'714.0
2017-Dec-08 19:30N 68°08' E 014°14'713.5
2017-Dec-08 19:00N 68°07' E 013°57'2 4.9
2017-Dec-08 18:30N 68°07' E 013°50'2 4.2
2017-Dec-08 18:01N 68°05' E 013°51'713.6
2017-Dec-08 17:29N 67°59' E 013°58'713.5
2017-Dec-08 17:00N 67°52' E 014°04'714.1
2017-Dec-08 16:30N 67°46' E 014°10'713.9
2017-Dec-08 16:00N 67°39' E 014°15'713.8
2017-Dec-08 15:30N 67°33' E 014°20'714.4
2017-Dec-08 15:01N 67°26' E 014°26'713.7
2017-Dec-08 14:31N 67°19' E 014°23'2 3.5
2017-Dec-08 14:00N 67°17' E 014°24'0 0.0
2017-Dec-08 13:29N 67°17' E 014°24'0 0.0
2017-Dec-08 12:59N 67°17' E 014°24'0 0.0
2017-Dec-08 12:29N 67°17' E 014°24'0 0.0
2017-Dec-08 11:59N 67°17' E 014°24'0 0.0
2017-Dec-08 11:30N 67°17' E 014°24'5 9.1
2017-Dec-08 11:00N 67°15' E 014°14'815.4
2017-Dec-08 10:31N 67°09' E 014°02'816.0
2017-Dec-08 10:01N 67°02' E 013°49'815.3
2017-Dec-08 09:30N 66°58' E 013°33'5 8.8
2017-Dec-08 09:00N 66°54' E 013°37'2 4.9
2017-Dec-08 08:30N 66°52' E 013°42'510.8
2017-Dec-08 08:00N 66°49' E 013°31'816.0
2017-Dec-08 07:30N 66°45' E 013°13'816.8
2017-Dec-08 07:01N 66°38' E 013°05'714.0
2017-Dec-08 06:30N 66°31' E 012°58'816.9
2017-Dec-08 06:00N 66°23' E 012°58'917.1
2017-Dec-08 05:30N 66°14' E 012°54'3 7.0
2017-Dec-08 05:00N 66°12' E 013°00'511.1
2017-Dec-08 04:30N 66°08' E 012°51'815.8
2017-Dec-08 04:00N 66°02' E 012°38'1 1.0
2017-Dec-08 03:30N 66°01' E 012°38'1 1.2
2017-Dec-08 03:00N 66°02' E 012°38'3 5.6
2017-Dec-08 02:30N 66°00' E 012°32'612.8
2017-Dec-08 02:00N 65°55' E 012°23'713.6
2017-Dec-08 01:30N 65°48' E 012°21'713.4
2017-Dec-08 01:00N 65°42' E 012°17'814.8
2017-Dec-08 00:30N 65°34' E 012°13'612.1
2017-Dec-08 00:00N 65°29' E 012°13'0 0.4
2017-Dec-07 23:30N 65°28' E 012°12'612.7
2017-Dec-07 23:00N 65°23' E 012°06'715.1
2017-Dec-07 22:31N 65°16' E 011°57'815.1
2017-Dec-07 22:00N 65°09' E 011°50'714.9
2017-Dec-07 21:31N 65°03' E 011°42'714.3
2017-Dec-07 21:00N 64°60' E 011°27'714.5
2017-Dec-07 20:30N 64°53' E 011°19'2 4.8
2017-Dec-07 20:00N 64°52' E 011°14'0 0.0
2017-Dec-07 19:30N 64°52' E 011°14'5 9.3
2017-Dec-07 19:00N 64°48' E 011°07'714.4
2017-Dec-07 18:30N 64°43' E 010°54'714.3
2017-Dec-07 18:00N 64°38' E 010°42'815.1
2017-Dec-07 17:31N 64°33' E 010°31'713.7
2017-Dec-07 17:00N 64°26' E 010°27'713.2
2017-Dec-07 16:30N 64°19' E 010°25'713.6
2017-Dec-07 16:00N 64°14' E 010°15'715.0
2017-Dec-07 15:30N 64°08' E 010°05'815.2
2017-Dec-07 15:00N 64°04' E 009°51'714.3
2017-Dec-07 14:30N 63°57' E 009°47'714.2
2017-Dec-07 14:00N 63°51' E 009°39'714.9
2017-Dec-07 13:30N 63°44' E 009°32'612.4
2017-Dec-07 13:00N 63°38' E 009°32'713.6
2017-Dec-07 12:31N 63°38' E 009°47'816.0
2017-Dec-07 12:01N 63°31' E 009°55'715.0
2017-Dec-07 11:31N 63°28' E 010°11'612.7
2017-Dec-07 11:00N 63°27' E 010°24'0 0.1
2017-Dec-07 10:30N 63°27' E 010°24'0 0.0
2017-Dec-07 10:00N 63°27' E 010°24'0 0.0
2017-Dec-07 09:30N 63°27' E 010°24'0 0.0
2017-Dec-07 09:00N 63°27' E 010°24'0 0.0
2017-Dec-07 08:30N 63°27' E 010°24'0 0.0
2017-Dec-07 08:00N 63°27' E 010°24'0 0.0
2017-Dec-07 07:30N 63°27' E 010°24'0 0.0
2017-Dec-07 07:00N 63°27' E 010°24'0 0.0
2017-Dec-07 06:30N 63°27' E 010°24'0 0.0
2017-Dec-07 06:00N 63°27' E 010°24'0 0.0
2017-Dec-07 05:30N 63°27' E 010°24'0 0.0
2017-Dec-07 05:00N 63°27' E 010°24'2 4.8
2017-Dec-07 04:30N 63°27' E 010°19'713.9
2017-Dec-07 04:00N 63°28' E 010°04'611.8
2017-Dec-07 03:30N 63°32' E 009°53'612.6
2017-Dec-07 03:00N 63°37' E 009°47'5 9.3
2017-Dec-07 02:30N 63°38' E 009°37'713.8
2017-Dec-07 02:00N 63°34' E 009°23'714.8
2017-Dec-07 01:30N 63°31' E 009°08'714.6
2017-Dec-07 01:00N 63°28' E 008°54'714.2
2017-Dec-07 00:30N 63°25' E 008°39'714.3
2017-Dec-07 00:00N 63°22' E 008°24'714.9
2017-Dec-06 23:30N 63°17' E 008°12'714.6
2017-Dec-06 23:00N 63°14' E 007°58'714.4
2017-Dec-06 22:30N 63°09' E 007°45'3 5.1
2017-Dec-06 22:00N 63°07' E 007°44'0 0.0
2017-Dec-06 21:30N 63°07' E 007°44'0 0.3
2017-Dec-06 21:01N 63°07' E 007°44'  
2017-Dec-04 10:30N 63°36' E 009°49'714.1
2017-Dec-04 10:00N 63°30' E 009°56'714.5
2017-Dec-04 09:30N 63°28' E 010°12'611.4
2017-Dec-04 09:00N 63°27' E 010°24'0 0.0
2017-Dec-04 08:30N 63°27' E 010°24'0 0.0
2017-Dec-04 08:00N 63°27' E 010°24'0 0.0
2017-Dec-04 07:30N 63°27' E 010°24'0 0.0
2017-Dec-04 07:00N 63°27' E 010°24'0 0.0
2017-Dec-04 06:30N 63°27' E 010°24'0 0.0
2017-Dec-04 06:00N 63°27' E 010°24'0 0.0
2017-Dec-04 05:30N 63°27' E 010°24'2 3.9
2017-Dec-04 05:00N 63°27' E 010°20'715.0
2017-Dec-04 04:30N 63°28' E 010°04'714.1
2017-Dec-04 04:00N 63°33' E 009°52'714.1
2017-Dec-04 03:30N 63°39' E 009°44'713.6
2017-Dec-04 03:00N 63°38' E 009°29'714.5
2017-Dec-04 02:30N 63°45' E 009°32'714.7
2017-Dec-04 02:00N 63°52' E 009°40'713.6
2017-Dec-04 01:30N 63°58' E 009°47'713.5
2017-Dec-04 01:00N 64°04' E 009°53'714.9
2017-Dec-04 00:30N 64°09' E 010°06'714.6
2017-Dec-04 00:00N 64°14' E 010°16'713.3
2017-Dec-03 23:30N 64°20' E 010°26'613.0
2017-Dec-03 23:00N 64°26' E 010°27'713.6
2017-Dec-03 22:30N 64°32' E 010°31'713.9
2017-Dec-03 22:00N 64°38' E 010°42'713.4
2017-Dec-03 21:30N 64°43' E 010°52'714.1
2017-Dec-03 21:00N 64°47' E 011°05'612.1
2017-Dec-03 20:31N 64°52' E 011°14'0 0.1
2017-Dec-03 20:00N 64°52' E 011°14'0 0.1
2017-Dec-03 19:31N 64°52' E 011°14'510.4
2017-Dec-03 19:00N 64°56' E 011°22'713.1
2017-Dec-03 18:30N 65°01' E 011°32'713.9
2017-Dec-03 18:00N 65°05' E 011°46'714.2
2017-Dec-03 17:30N 65°11' E 011°52'714.5
2017-Dec-03 17:00N 65°18' E 011°59'815.0
2017-Dec-03 16:30N 65°24' E 012°08'5 9.2
2017-Dec-03 16:00N 65°29' E 012°13'0 0.0
2017-Dec-03 15:29N 65°29' E 012°13'0 0.0
2017-Dec-03 15:00N 65°29' E 012°13'2 4.2
2017-Dec-03 14:30N 65°31' E 012°12'815.0
2017-Dec-03 14:00N 65°38' E 012°15'815.0
2017-Dec-03 13:30N 65°45' E 012°18'714.8
2017-Dec-03 13:00N 65°53' E 012°22'713.7
2017-Dec-03 12:30N 65°59' E 012°28'5 9.4
2017-Dec-03 12:00N 66°01' E 012°38'0 0.0
2017-Dec-03 11:30N 66°01' E 012°38'5 9.3
2017-Dec-03 11:00N 66°06' E 012°43'714.3
2017-Dec-03 10:30N 66°10' E 012°57'3 5.1
2017-Dec-03 10:00N 66°12' E 013°00'611.7
2017-Dec-03 09:30N 66°18' E 012°56'815.8
2017-Dec-03 09:00N 66°26' E 012°59'714.5
2017-Dec-03 08:30N 66°33' E 013°01'714.9
2017-Dec-03 08:00N 66°40' E 013°07'815.5
2017-Dec-03 07:30N 66°47' E 013°16'815.4
2017-Dec-03 07:00N 66°49' E 013°35'4 8.0
2017-Dec-03 06:30N 66°52' E 013°42'5 8.9
2017-Dec-03 06:00N 66°54' E 013°31'611.5
2017-Dec-03 05:30N 66°59' E 013°35'714.3
2017-Dec-03 05:00N 67°03' E 013°51'714.1
2017-Dec-03 04:30N 67°09' E 014°02'815.4
2017-Dec-03 04:00N 67°15' E 014°12'5 9.9
2017-Dec-03 03:30N 67°17' E 014°24'0 0.1
2017-Dec-03 03:00N 67°17' E 014°24'0 0.0
2017-Dec-03 02:31N 67°17' E 014°24'1 1.5
2017-Dec-03 02:00N 67°17' E 014°22'3 5.8
2017-Dec-03 01:31N 67°20' E 014°20'713.9
2017-Dec-03 01:01N 67°27' E 014°25'815.1
2017-Dec-03 00:30N 67°34' E 014°20'814.9
2017-Dec-03 00:00N 67°41' E 014°13'714.6
2017-Dec-02 23:31N 67°48' E 014°07'714.6
2017-Dec-02 23:00N 67°55' E 014°01'714.6
2017-Dec-02 22:30N 68°02' E 013°54'611.1
2017-Dec-02 22:00N 68°07' E 013°50'0 0.0
2017-Dec-02 21:31N 68°07' E 013°50'4 7.4
2017-Dec-02 21:00N 68°07' E 014°01'713.5
2017-Dec-02 20:30N 68°09' E 014°17'713.4
2017-Dec-02 20:00N 68°12' E 014°33'1 2.6
2017-Dec-02 19:26N 68°14' E 014°34'0 0.0
2017-Dec-02 18:56N 68°14' E 014°34'0 0.0
2017-Dec-02 18:26N 68°14' E 014°34'0 0.0
2017-Dec-02 17:56N 68°14' E 014°34'0 0.0
2017-Dec-02 17:26N 68°14' E 014°34'1 2.1
2017-Dec-02 17:00N 68°13' E 014°35'612.3
2017-Dec-02 16:30N 68°13' E 014°51'714.2
2017-Dec-02 16:00N 68°19' E 014°59'714.9
2017-Dec-02 15:30N 68°26' E 015°09'611.0
2017-Dec-02 15:00N 68°31' E 015°08'611.0
2017-Dec-02 14:30N 68°34' E 014°55'0 0.0
2017-Dec-02 13:56N 68°34' E 014°55'0 0.0
2017-Dec-02 13:26N 68°34' E 014°55'2 4.2
2017-Dec-02 13:00N 68°34' E 014°60'714.3
2017-Dec-02 12:31N 68°38' E 015°17'510.0
2017-Dec-02 11:59N 68°42' E 015°25'0 0.0
2017-Dec-02 11:30N 68°42' E 015°25'4 7.3
2017-Dec-02 11:00N 68°46' E 015°26'714.5
2017-Dec-02 10:30N 68°53' E 015°32'612.1
2017-Dec-02 10:00N 68°58' E 015°39'0 0.2
2017-Dec-02 09:30N 68°58' E 015°39'510.0
2017-Dec-02 09:00N 68°59' E 015°52'714.5
2017-Dec-02 08:30N 68°57' E 016°12'714.4
2017-Dec-02 08:00N 68°52' E 016°27'510.1
2017-Dec-02 07:31N 68°48' E 016°33'0 0.2
2017-Dec-02 07:00N 68°48' E 016°33'611.9
2017-Dec-02 06:30N 68°52' E 016°46'816.9
2017-Dec-02 06:00N 68°57' E 017°04'816.1
2017-Dec-02 05:30N 69°03' E 017°20'815.2
2017-Dec-02 05:01N 69°07' E 017°37'815.4
2017-Dec-02 04:30N 69°10' E 017°57'4 7.0
2017-Dec-02 04:00N 69°14' E 017°58'1 1.3
2017-Dec-02 03:30N 69°14' E 017°58'713.5
2017-Dec-02 03:00N 69°21' E 018°04'714.3
2017-Dec-02 02:31N 69°28' E 018°07'815.2
2017-Dec-02 02:00N 69°31' E 018°26'815.9
2017-Dec-02 01:30N 69°34' E 018°48'612.0
2017-Dec-02 01:00N 69°39' E 018°58'0 0.1
2017-Dec-02 00:30N 69°39' E 018°58'0 0.0
2017-Dec-02 00:00N 69°39' E 018°58'0 0.0
2017-Dec-01 23:30N 69°39' E 018°58'0 0.0
2017-Dec-01 23:00N 69°39' E 018°58'1 1.1
2017-Dec-01 22:30N 69°38' E 018°57'2 3.6
2017-Dec-01 22:00N 69°39' E 018°52'3 6.2
2017-Dec-01 21:30N 69°42' E 018°56'3 6.2
2017-Dec-01 21:00N 69°44' E 019°02'3 6.0
2017-Dec-01 20:30N 69°41' E 019°02'3 5.2
2017-Dec-01 20:00N 69°39' E 018°58'0 0.0
2017-Dec-01 19:30N 69°39' E 018°58'0 0.0
2017-Dec-01 18:59N 69°39' E 018°58'3 6.1
2017-Dec-01 18:30N 69°42' E 019°02'713.2
2017-Dec-01 18:00N 69°47' E 019°14'815.2
2017-Dec-01 17:30N 69°50' E 019°34'815.1
2017-Dec-01 17:00N 69°53' E 019°53'815.1
2017-Dec-01 16:30N 69°58' E 020°10'815.0
2017-Dec-01 16:00N 70°01' E 020°31'815.3
2017-Dec-01 15:30N 70°03' E 020°52'815.3
2017-Dec-01 15:00N 70°10' E 021°04'714.4
2017-Dec-01 14:30N 70°16' E 021°16'815.5
2017-Dec-01 14:00N 70°21' E 021°33'715.0
2017-Dec-01 13:30N 70°25' E 021°52'815.9
2017-Dec-01 13:00N 70°27' E 022°15'816.0
2017-Dec-01 12:31N 70°29' E 022°37'815.2
2017-Dec-01 12:00N 70°32' E 022°59'815.1
2017-Dec-01 11:30N 70°37' E 023°16'714.8
2017-Dec-01 11:00N 70°40' E 023°37'1 2.7
2017-Dec-01 10:30N 70°40' E 023°41'0 0.0
2017-Dec-01 10:00N 70°40' E 023°41'2 3.2
2017-Dec-01 09:31N 70°40' E 023°36'611.6
2017-Dec-01 09:00N 70°46' E 023°40'  

Dump ship's entire track history